Time;durP1;ratioP1;P1;durP2;ratioP2;P2;SDS_P1;SDS_P2;PMS_P1;PMS_P2;Temp;Humidity;BMP_temperature;BMP_pressure;BME280_temperature;BME280_humidity;BME280_pressure;Samples;Min_cycle;Max_cycle;Signal;HPM_P1;HPM_P2
2023/01/01 00:02:13;;;;;;;32.95;22.10;;;13.80;99.90;;;;;;5017845;28;20420;-67
2023/01/01 00:04:39;;;;;;;28.98;19.30;;;13.70;99.90;;;;;;5021859;28;20037;-65
2023/01/01 00:07:04;;;;;;;30.80;18.92;;;13.70;99.90;;;;;;5027247;28;20049;-64
2023/01/01 00:12:14;;;;;;;32.63;15.30;;;13.60;99.90;;;;;;5000489;28;20037;-65
2023/01/01 00:14:42;;;;;;;25.92;14.45;;;13.70;99.90;;;;;;5016242;28;20030;-66
2023/01/01 00:17:08;;;;;;;25.50;14.05;;;13.60;99.90;;;;;;5000687;28;20107;-63
2023/01/01 00:19:33;;;;;;;24.02;14.30;;;13.60;99.90;;;;;;5018823;28;20033;-65
2023/01/01 00:21:59;;;;;;;28.83;12.48;;;13.50;99.90;;;;;;5016843;28;20057;-64
2023/01/01 00:24:25;;;;;;;22.75;13.18;;;13.60;99.90;;;;;;4988191;28;20116;-64
2023/01/01 00:26:50;;;;;;;22.67;11.10;;;13.60;99.90;;;;;;5023357;28;20034;-65
2023/01/01 00:29:16;;;;;;;22.40;11.40;;;13.50;99.90;;;;;;5029390;28;20037;-65
2023/01/01 00:31:41;;;;;;;28.20;12.20;;;13.50;99.90;;;;;;5022768;28;20487;-64
2023/01/01 00:34:09;;;;;;;20.70;11.98;;;13.50;99.90;;;;;;5021915;28;20042;-64
2023/01/01 00:36:34;;;;;;;23.27;11.93;;;13.50;99.90;;;;;;4996237;28;20641;-65
2023/01/01 00:39:01;;;;;;;20.20;11.50;;;13.40;99.90;;;;;;5023281;28;20147;-64
2023/01/01 00:41:27;;;;;;;25.85;12.05;;;13.50;99.90;;;;;;5025845;28;20437;-63
2023/01/01 00:43:53;;;;;;;23.08;12.45;;;13.50;99.90;;;;;;5013463;28;20041;-65
2023/01/01 00:46:18;;;;;;;21.70;11.82;;;13.40;99.90;;;;;;5002637;28;20044;-65
2023/01/01 00:48:44;;;;;;;27.17;12.35;;;13.50;99.90;;;;;;5007177;28;20695;-64
2023/01/01 00:51:10;;;;;;;27.35;13.38;;;13.50;99.90;;;;;;5011597;28;20395;-64
2023/01/01 00:53:36;;;;;;;23.65;12.68;;;13.50;99.90;;;;;;5013411;28;20426;-64
2023/01/01 00:56:02;;;;;;;25.88;13.35;;;13.50;99.90;;;;;;5009101;28;20033;-64
2023/01/01 00:58:28;;;;;;;26.92;12.98;;;13.50;99.90;;;;;;5024523;28;20060;-64
2023/01/01 01:00:54;;;;;;;32.53;14.57;;;13.60;99.90;;;;;;5030609;28;20029;-64
2023/01/01 01:03:32;;;;;;;25.20;14.07;;;13.60;99.90;;;;;;5022555;28;20116;-64
2023/01/01 01:06:01;;;;;;;29.70;14.30;;;13.60;99.90;;;;;;5021811;28;20045;-64
2023/01/01 01:08:28;;;;;;;25.17;14.55;;;13.60;99.90;;;;;;4991099;28;20049;-64
2023/01/01 01:10:55;;;;;;;27.15;14.45;;;13.60;99.90;;;;;;5029566;28;20392;-64
2023/01/01 01:13:22;;;;;;;24.15;14.27;;;13.60;99.90;;;;;;5032615;28;20030;-64
2023/01/01 01:15:47;;;;;;;24.55;14.02;;;13.70;99.90;;;;;;5005548;28;20060;-65
2023/01/01 01:18:13;;;;;;;25.88;14.32;;;13.70;99.90;;;;;;5023701;28;20034;-64
2023/01/01 01:20:39;;;;;;;25.35;13.93;;;13.70;99.90;;;;;;5028568;28;20065;-64
2023/01/01 01:23:04;;;;;;;33.10;15.07;;;13.70;99.90;;;;;;5026966;28;20487;-64
2023/01/01 01:25:30;;;;;;;26.95;15.18;;;13.70;99.90;;;;;;5029939;28;20557;-64
2023/01/01 01:27:56;;;;;;;29.38;15.30;;;13.70;99.90;;;;;;5012379;28;20450;-65
2023/01/01 01:30:21;;;;;;;26.60;14.15;;;13.70;99.90;;;;;;5003314;28;20034;-63
2023/01/01 01:32:47;;;;;;;24.25;13.65;;;13.60;99.90;;;;;;5031579;28;20091;-63
2023/01/01 01:35:13;;;;;;;25.88;14.25;;;13.60;99.90;;;;;;5005625;28;20060;-66
2023/01/01 01:37:38;;;;;;;29.38;13.30;;;13.60;99.90;;;;;;5005712;28;20049;-64
2023/01/01 01:40:05;;;;;;;30.50;13.77;;;13.60;99.90;;;;;;5013062;28;20045;-65
2023/01/01 01:42:31;;;;;;;24.85;13.65;;;13.60;99.90;;;;;;5028769;28;20041;-65
2023/01/01 01:44:59;;;;;;;24.10;13.20;;;13.60;99.90;;;;;;5003883;28;20083;-66
2023/01/01 01:47:36;;;;;;;26.27;13.93;;;13.60;99.90;;;;;;5003801;28;20041;-64
2023/01/01 01:50:23;;;;;;;23.95;13.70;;;13.60;99.90;;;;;;5031409;28;20040;-64
2023/01/01 01:53:03;;;;;;;33.88;14.95;;;13.60;99.90;;;;;;5019143;28;20124;-65
2023/01/01 01:55:31;;;;;;;31.83;14.50;;;13.60;99.90;;;;;;5022987;28;20037;-65
2023/01/01 01:57:57;;;;;;;26.45;14.55;;;13.60;99.90;;;;;;5011164;28;20039;-65
2023/01/01 02:00:22;;;;;;;30.80;14.80;;;13.70;99.90;;;;;;5028442;28;20100;-67
2023/01/01 02:03:00;;;;;;;26.85;13.95;;;13.60;99.90;;;;;;5016021;28;20061;-64
2023/01/01 02:05:27;;;;;;;30.40;15.13;;;13.60;99.90;;;;;;5025305;28;20030;-64
2023/01/01 02:07:54;;;;;;;25.13;13.48;;;13.60;99.90;;;;;;5022066;28;20087;-66
2023/01/01 02:10:20;;;;;;;26.63;13.77;;;13.50;99.90;;;;;;5025741;28;20048;-64
2023/01/01 02:12:45;;;;;;;26.95;13.48;;;13.50;99.90;;;;;;5030036;28;20037;-64
2023/01/01 02:15:11;;;;;;;26.02;11.98;;;13.50;99.90;;;;;;5035156;28;20033;-65
2023/01/01 02:18:03;;;;;;;26.10;11.32;;;13.60;99.90;;;;;;5021315;28;20055;-66
2023/01/01 02:20:39;;;;;;;23.73;11.93;;;13.50;99.90;;;;;;5008017;28;20069;-64
2023/01/01 02:24:00;;;;;;;21.23;10.93;;;13.60;99.90;;;;;;5029080;28;20358;-64
2023/01/01 02:26:41;;;;;;;22.90;11.25;;;13.60;99.90;;;;;;4940289;28;20046;-64
2023/01/01 02:29:46;;;;;;;23.67;10.50;;;13.50;99.90;;;;;;4992706;28;20128;-64
2023/01/01 02:32:16;;;;;;;20.50;9.82;;;13.50;99.90;;;;;;4997698;28;20049;-66
2023/01/01 02:34:58;;;;;;;21.52;9.00;;;13.50;99.90;;;;;;5028949;28;20037;-64
2023/01/01 02:37:27;;;;;;;21.33;9.30;;;13.60;99.90;;;;;;5025034;28;20140;-67
2023/01/01 02:39:57;;;;;;;19.02;9.60;;;13.60;99.90;;;;;;5022153;28;20773;-64
2023/01/01 02:42:26;;;;;;;18.73;8.73;;;13.60;99.90;;;;;;5014309;28;20036;-64
2023/01/01 02:44:54;;;;;;;18.45;7.35;;;13.50;99.90;;;;;;5025785;28;20041;-66
2023/01/01 02:47:20;;;;;;;14.68;7.38;;;13.60;99.90;;;;;;5030264;28;20037;-65
2023/01/01 02:49:49;;;;;;;14.63;6.20;;;13.60;99.90;;;;;;5023441;28;20059;-65
2023/01/01 02:52:26;;;;;;;16.02;5.68;;;13.70;99.90;;;;;;5012356;28;20056;-64
2023/01/01 02:55:03;;;;;;;11.07;5.55;;;13.80;99.90;;;;;;5004201;28;20178;-68
2023/01/01 02:57:47;;;;;;;12.80;5.40;;;13.80;99.90;;;;;;5018815;28;20033;-64
2023/01/01 03:00:48;;;;;;;13.60;5.25;;;13.80;99.90;;;;;;5022261;28;20040;-65
2023/01/01 03:03:23;;;;;;;10.48;4.50;;;13.90;99.90;;;;;;4999610;28;20439;-65
2023/01/01 03:08:59;;;;;;;11.20;4.28;;;14.00;99.90;;;;;;5024641;28;20049;-64
2023/01/01 03:11:34;;;;;;;12.05;4.43;;;13.90;99.90;;;;;;5003524;28;20044;-67
2023/01/01 03:14:14;;;;;;;8.55;3.95;;;13.90;99.90;;;;;;5027088;28;20067;-64
2023/01/01 03:16:49;;;;;;;13.98;3.88;;;14.10;99.90;;;;;;5018500;28;20037;-64
2023/01/01 03:19:18;;;;;;;8.13;3.50;;;14.00;99.90;;;;;;5003083;28;20443;-66
2023/01/01 03:21:47;;;;;;;11.57;3.72;;;14.00;99.90;;;;;;5009067;28;20116;-64
2023/01/01 03:24:20;;;;;;;10.75;3.90;;;14.10;99.90;;;;;;5025283;28;20030;-67
2023/01/01 03:26:51;;;;;;;12.18;4.25;;;14.10;99.90;;;;;;5002915;28;20045;-64
2023/01/01 03:29:19;;;;;;;7.90;4.07;;;14.10;99.90;;;;;;5002791;28;20107;-64
2023/01/01 03:31:49;;;;;;;8.57;3.33;;;14.20;99.90;;;;;;5024644;28;20108;-67
2023/01/01 03:34:20;;;;;;;11.25;3.78;;;14.10;99.90;;;;;;5005562;28;20042;-64
2023/01/01 03:36:51;;;;;;;7.53;3.20;;;14.20;99.90;;;;;;5007211;28;20040;-64
2023/01/01 03:39:22;;;;;;;9.20;2.88;;;14.20;99.90;;;;;;5023736;28;20064;-64
2023/01/01 03:42:25;;;;;;;8.93;2.92;;;14.20;99.90;;;;;;5029365;28;20099;-64
2023/01/01 03:45:00;;;;;;;12.55;3.78;;;14.20;99.90;;;;;;5021127;28;20084;-65
2023/01/01 03:47:27;;;;;;;7.78;3.05;;;14.20;99.90;;;;;;5005890;28;20049;-65
2023/01/01 03:49:53;;;;;;;10.20;3.78;;;14.20;99.90;;;;;;5023477;28;20041;-64
2023/01/01 03:52:31;;;;;;;10.27;2.88;;;14.20;99.90;;;;;;5017507;28;20137;-65
2023/01/01 03:55:04;;;;;;;6.72;3.10;;;14.20;99.90;;;;;;5008407;28;20041;-65
2023/01/01 03:57:45;;;;;;;9.43;3.05;;;14.20;99.90;;;;;;5027792;28;20496;-64
2023/01/01 04:00:17;;;;;;;10.77;3.28;;;14.30;99.90;;;;;;5019999;28;20095;-64
2023/01/01 04:02:58;;;;;;;13.10;3.33;;;14.30;99.90;;;;;;5027467;28;20487;-64
2023/01/01 04:05:25;;;;;;;9.95;2.78;;;14.20;99.90;;;;;;5010212;28;20045;-64
2023/01/01 04:07:52;;;;;;;11.60;2.88;;;14.20;99.90;;;;;;5031700;28;20045;-64
2023/01/01 04:10:56;;;;;;;10.73;3.47;;;14.30;99.90;;;;;;5028085;28;20073;-62
2023/01/01 04:13:22;;;;;;;7.38;2.85;;;14.20;99.90;;;;;;5029850;28;20391;-62
2023/01/01 04:15:47;;;;;;;8.70;2.80;;;14.30;99.90;;;;;;5007158;28;20037;-63
2023/01/01 04:18:13;;;;;;;9.90;3.05;;;14.30;99.90;;;;;;5026475;28;20123;-63
2023/01/01 04:20:38;;;;;;;7.57;2.70;;;14.30;99.90;;;;;;5022449;28;20037;-65
2023/01/01 04:23:04;;;;;;;10.63;2.72;;;14.30;99.90;;;;;;5021911;28;20037;-62
2023/01/01 04:25:30;;;;;;;13.20;3.05;;;14.20;99.90;;;;;;5005061;28;20052;-62
2023/01/01 04:28:02;;;;;;;12.05;2.95;;;14.30;99.90;;;;;;5017538;28;20073;-62
2023/01/01 04:30:29;;;;;;;12.40;3.28;;;14.30;99.90;;;;;;5023318;28;20040;-63
2023/01/01 04:32:54;;;;;;;11.15;2.97;;;14.20;99.90;;;;;;5003274;28;20034;-62
2023/01/01 04:35:20;;;;;;;8.02;2.63;;;14.30;99.90;;;;;;5032266;28;20033;-62
2023/01/01 04:37:46;;;;;;;8.20;2.72;;;14.20;99.90;;;;;;5014620;28;20412;-62
2023/01/01 04:40:12;;;;;;;10.20;3.17;;;14.30;99.90;;;;;;5025620;28;20041;-62
2023/01/01 04:42:38;;;;;;;11.13;2.70;;;14.20;99.90;;;;;;5015646;28;20038;-62
2023/01/01 04:45:04;;;;;;;6.85;2.00;;;14.20;99.90;;;;;;5014590;28;20080;-62
2023/01/01 04:47:30;;;;;;;13.27;2.20;;;14.30;99.90;;;;;;5025427;28;20091;-62
2023/01/01 04:49:55;;;;;;;5.20;1.92;;;14.30;99.90;;;;;;5023584;28;20084;-63
2023/01/01 04:52:21;;;;;;;12.55;2.40;;;14.30;99.90;;;;;;4998623;28;20037;-63
2023/01/01 04:54:47;;;;;;;8.40;2.60;;;14.30;99.90;;;;;;5028366;28;20124;-62
2023/01/01 04:57:13;;;;;;;6.55;2.10;;;14.20;99.90;;;;;;5030076;28;20065;-62
2023/01/01 04:59:38;;;;;;;9.10;2.45;;;14.20;99.90;;;;;;5022941;28;20033;-63
2023/01/01 05:02:04;;;;;;;8.07;2.35;;;14.20;99.90;;;;;;5027514;28;20046;-62
2023/01/01 05:04:30;;;;;;;8.57;2.42;;;14.20;99.90;;;;;;5021581;28;20515;-64
2023/01/01 05:06:55;;;;;;;6.53;2.33;;;14.20;99.90;;;;;;5007345;28;20488;-62
2023/01/01 05:09:21;;;;;;;5.53;2.22;;;14.10;99.90;;;;;;5010189;28;20034;-62
2023/01/01 05:11:47;;;;;;;6.28;2.58;;;14.10;99.90;;;;;;5027957;28;20037;-62
2023/01/01 05:14:12;;;;;;;7.40;2.25;;;14.10;99.90;;;;;;5023702;28;20064;-63
2023/01/01 05:16:39;;;;;;;10.00;2.20;;;14.10;99.90;;;;;;5019601;28;20034;-64
2023/01/01 05:19:07;;;;;;;8.02;1.80;;;14.10;99.90;;;;;;5024546;28;20041;-63
2023/01/01 05:21:35;;;;;;;5.45;1.67;;;14.10;99.90;;;;;;5009947;28;20044;-64
2023/01/01 05:24:03;;;;;;;6.63;1.98;;;14.00;99.90;;;;;;5027689;28;20029;-65
2023/01/01 05:26:32;;;;;;;5.15;1.77;;;14.00;99.90;;;;;;5026822;28;20037;-64
2023/01/01 05:28:58;;;;;;;6.75;1.90;;;14.00;99.90;;;;;;5004407;28;20407;-64
2023/01/01 05:31:27;;;;;;;8.15;1.52;;;14.00;99.90;;;;;;5006752;28;20401;-65
2023/01/01 05:33:53;;;;;;;5.55;1.98;;;14.00;99.90;;;;;;5022391;28;20091;-65
2023/01/01 05:36:30;;;;;;;3.55;1.50;;;13.90;99.90;;;;;;5013382;28;20402;-63
2023/01/01 05:38:57;;;;;;;4.75;1.50;;;13.90;99.90;;;;;;5032198;28;20399;-64
2023/01/01 05:41:23;;;;;;;4.78;1.60;;;13.80;99.90;;;;;;5024043;28;20064;-64
2023/01/01 05:43:50;;;;;;;5.72;1.75;;;13.70;99.90;;;;;;5005851;28;20069;-65
2023/01/01 05:46:18;;;;;;;7.45;2.17;;;13.70;99.90;;;;;;5027607;28;20038;-64
2023/01/01 05:48:44;;;;;;;4.72;1.60;;;13.70;99.90;;;;;;5013495;28;20038;-64
2023/01/01 05:51:12;;;;;;;6.63;1.50;;;13.60;99.90;;;;;;5029218;28;20034;-65
2023/01/01 05:53:38;;;;;;;9.50;2.20;;;13.60;99.90;;;;;;5031681;28;20069;-64
2023/01/01 05:56:05;;;;;;;4.65;1.40;;;13.60;99.90;;;;;;5021494;28;21267;-64
2023/01/01 05:58:32;;;;;;;6.22;1.90;;;13.60;99.90;;;;;;5020690;28;20052;-64
2023/01/01 06:01:09;;;;;;;4.78;1.40;;;13.50;99.90;;;;;;5026823;28;20034;-65
2023/01/01 06:03:35;;;;;;;7.38;1.98;;;13.50;99.90;;;;;;5002223;28;20518;-65
2023/01/01 06:06:11;;;;;;;5.13;1.50;;;13.50;99.90;;;;;;5022249;28;20112;-64
2023/01/01 06:08:37;;;;;;;4.85;1.63;;;13.50;99.90;;;;;;5002100;28;20372;-64
2023/01/01 06:11:05;;;;;;;6.55;1.48;;;13.40;99.90;;;;;;5024356;28;20064;-64
2023/01/01 06:13:31;;;;;;;6.60;2.03;;;13.40;99.90;;;;;;5000420;28;20046;-65
2023/01/01 06:15:58;;;;;;;6.20;1.98;;;13.40;99.90;;;;;;5011881;28;20041;-63
2023/01/01 06:18:25;;;;;;;9.15;1.85;;;13.40;99.90;;;;;;5031272;28;20045;-63
2023/01/01 06:20:51;;;;;;;5.68;1.55;;;13.30;99.90;;;;;;5030900;28;20069;-64
2023/01/01 06:23:17;;;;;;;7.32;1.60;;;13.30;99.90;;;;;;5016944;28;20044;-65
2023/01/01 06:25:43;;;;;;;6.05;1.70;;;13.30;99.90;;;;;;5029357;28;20041;-63
2023/01/01 06:28:08;;;;;;;8.52;1.85;;;13.30;99.90;;;;;;5014206;28;20033;-64
2023/01/01 06:30:35;;;;;;;8.40;2.03;;;13.30;99.90;;;;;;5029999;28;20399;-62
2023/01/01 06:33:00;;;;;;;6.30;1.85;;;13.30;99.90;;;;;;5023137;28;20040;-61
2023/01/01 06:35:26;;;;;;;8.15;2.10;;;13.30;99.90;;;;;;5022133;28;20025;-64
2023/01/01 06:37:52;;;;;;;8.23;2.00;;;13.30;99.90;;;;;;5002538;28;20042;-64
2023/01/01 06:40:18;;;;;;;8.98;2.05;;;13.20;99.90;;;;;;5001660;28;20768;-64
2023/01/01 06:42:43;;;;;;;4.47;1.65;;;13.20;99.90;;;;;;5028041;28;20095;-61
2023/01/01 06:45:09;;;;;;;4.78;2.00;;;13.10;99.90;;;;;;5029036;28;20396;-62
2023/01/01 06:47:35;;;;;;;6.15;1.80;;;13.10;99.90;;;;;;5010643;28;20120;-64
2023/01/01 06:50:03;;;;;;;9.48;2.42;;;13.10;99.90;;;;;;5021304;28;20029;-63
2023/01/01 06:52:28;;;;;;;8.27;1.77;;;13.10;99.90;;;;;;5005840;28;20037;-63
2023/01/01 06:54:54;;;;;;;7.45;2.15;;;13.00;99.90;;;;;;5029493;28;20110;-64
2023/01/01 06:57:19;;;;;;;6.45;1.77;;;13.00;99.90;;;;;;5025785;28;20038;-63
2023/01/01 06:59:45;;;;;;;7.57;1.90;;;13.00;99.90;;;;;;5029884;28;20512;-63
2023/01/01 07:02:11;;;;;;;7.15;2.00;;;13.00;99.90;;;;;;5008901;28;20481;-64
2023/01/01 07:04:37;;;;;;;9.07;1.95;;;13.00;99.90;;;;;;5027352;28;20135;-63
2023/01/01 07:07:03;;;;;;;8.70;1.85;;;12.90;99.90;;;;;;4998525;28;20357;-63
2023/01/01 07:09:29;;;;;;;9.02;1.88;;;12.90;99.90;;;;;;5022035;28;20598;-64
2023/01/01 07:11:54;;;;;;;4.47;1.65;;;12.90;99.90;;;;;;5009900;28;20124;-64
2023/01/01 07:14:20;;;;;;;5.10;1.55;;;12.90;99.90;;;;;;5019819;28;20109;-63
2023/01/01 07:16:46;;;;;;;8.55;2.03;;;12.90;99.90;;;;;;5021126;28;20612;-64
2023/01/01 07:19:11;;;;;;;6.10;1.80;;;12.80;99.90;;;;;;5021407;28;20443;-64
2023/01/01 07:21:47;;;;;;;8.18;1.90;;;12.80;99.90;;;;;;5022981;28;20320;-64
2023/01/01 07:24:14;;;;;;;9.30;2.03;;;12.80;99.90;;;;;;5026268;28;20038;-63
2023/01/01 07:26:40;;;;;;;6.35;1.60;;;12.80;99.90;;;;;;5025126;28;20034;-64
2023/01/01 07:29:09;;;;;;;9.25;2.00;;;12.80;99.90;;;;;;5022259;28;20034;-61
2023/01/01 07:31:36;;;;;;;6.75;1.88;;;12.80;99.90;;;;;;5003533;28;20041;-64
2023/01/01 07:34:02;;;;;;;7.97;1.98;;;12.70;99.90;;;;;;5009314;28;20119;-63
2023/01/01 07:36:28;;;;;;;7.93;1.70;;;12.70;99.90;;;;;;5000501;28;20029;-64
2023/01/01 07:38:53;;;;;;;5.75;1.63;;;12.70;99.90;;;;;;5022733;28;20113;-64
2023/01/01 07:41:19;;;;;;;5.18;1.77;;;12.70;99.90;;;;;;5022962;28;20120;-63
2023/01/01 07:43:44;;;;;;;6.43;1.80;;;12.70;99.90;;;;;;5030337;28;20029;-62
2023/01/01 07:46:12;;;;;;;10.10;2.22;;;12.70;99.90;;;;;;5018452;28;20522;-64
2023/01/01 07:48:38;;;;;;;7.40;1.92;;;12.70;99.90;;;;;;5035812;28;20041;-64
2023/01/01 07:51:03;;;;;;;10.35;1.70;;;12.80;99.90;;;;;;5034010;28;20045;-63
2023/01/01 07:53:29;;;;;;;8.07;1.75;;;12.80;99.90;;;;;;5009132;28;20049;-64
2023/01/01 07:55:54;;;;;;;8.75;1.77;;;12.80;99.90;;;;;;5027406;28;20038;-61
2023/01/01 07:58:21;;;;;;;8.93;2.10;;;12.70;99.90;;;;;;5036866;28;20109;-64
2023/01/01 08:00:47;;;;;;;13.02;2.42;;;12.80;99.90;;;;;;5018883;28;20041;-64
2023/01/01 08:03:14;;;;;;;6.88;1.52;;;12.70;99.90;;;;;;5029247;28;20025;-63
2023/01/01 08:05:39;;;;;;;9.30;2.38;;;12.70;99.90;;;;;;4999657;28;20049;-63
2023/01/01 08:08:05;;;;;;;6.88;1.90;;;12.70;99.90;;;;;;5029253;28;20044;-63
2023/01/01 08:10:31;;;;;;;9.15;1.80;;;12.70;99.90;;;;;;5024879;28;20034;-62
2023/01/01 08:13:05;;;;;;;7.80;2.00;;;12.60;99.90;;;;;;5025380;28;20425;-64
2023/01/01 08:15:31;;;;;;;6.60;1.83;;;12.60;99.90;;;;;;5018045;28;20037;-64
2023/01/01 08:17:58;;;;;;;7.60;1.60;;;12.60;99.90;;;;;;5034094;28;20109;-61
2023/01/01 08:20:24;;;;;;;11.23;2.28;;;12.60;99.90;;;;;;5006111;28;20041;-62
2023/01/01 08:22:50;;;;;;;4.85;1.80;;;12.60;99.90;;;;;;5029770;28;20048;-62
2023/01/01 08:25:15;;;;;;;10.18;2.00;;;12.60;99.90;;;;;;5035927;28;20037;-65
2023/01/01 08:27:41;;;;;;;12.90;2.05;;;12.60;99.90;;;;;;5026076;28;20068;-61
2023/01/01 08:30:07;;;;;;;9.43;1.73;;;12.60;99.90;;;;;;5032903;28;20041;-62
2023/01/01 08:32:33;;;;;;;9.80;1.98;;;12.50;99.90;;;;;;5011295;28;20034;-62
2023/01/01 08:34:58;;;;;;;12.45;1.92;;;12.50;99.90;;;;;;5031605;28;20049;-62
2023/01/01 08:37:24;;;;;;;11.90;2.10;;;12.60;99.90;;;;;;5012110;28;20124;-62
2023/01/01 08:39:51;;;;;;;8.80;1.80;;;12.50;99.90;;;;;;5029772;28;20443;-64
2023/01/01 08:42:17;;;;;;;11.25;2.28;;;12.50;99.90;;;;;;5030579;28;20121;-62
2023/01/01 08:44:42;;;;;;;12.30;2.50;;;12.50;99.90;;;;;;5007061;28;20532;-62
2023/01/01 08:47:20;;;;;;;11.65;2.30;;;12.40;99.90;;;;;;5012194;28;20037;-61
2023/01/01 08:49:46;;;;;;;9.52;1.67;;;12.40;99.90;;;;;;5024523;28;20043;-61
2023/01/01 08:52:12;;;;;;;6.68;1.70;;;12.40;99.90;;;;;;5013844;28;20033;-61
2023/01/01 08:54:37;;;;;;;8.52;2.28;;;12.40;99.90;;;;;;5027935;28;20510;-62
2023/01/01 08:57:03;;;;;;;8.65;2.03;;;12.40;99.90;;;;;;5023144;28;20038;-61
2023/01/01 08:59:29;;;;;;;13.02;2.30;;;12.40;99.90;;;;;;5013468;28;20500;-61
2023/01/01 09:01:54;;;;;;;10.85;2.00;;;12.40;99.90;;;;;;5005012;28;20040;-62
2023/01/01 09:04:20;;;;;;;11.15;1.95;;;12.40;99.90;;;;;;5024818;28;20121;-61
2023/01/01 09:06:46;;;;;;;11.93;1.83;;;12.40;99.90;;;;;;5020579;28;20041;-61
2023/01/01 09:09:12;;;;;;;10.85;2.05;;;12.40;99.90;;;;;;5022201;28;20079;-62
2023/01/01 09:11:37;;;;;;;10.07;2.20;;;12.30;99.90;;;;;;5007240;28;20034;-61
2023/01/01 09:14:03;;;;;;;11.45;2.05;;;12.30;99.90;;;;;;5005807;28;20365;-63
2023/01/01 09:16:28;;;;;;;11.35;2.13;;;12.30;99.90;;;;;;5020979;28;20060;-61
2023/01/01 09:18:54;;;;;;;10.18;1.90;;;12.30;99.90;;;;;;5029407;28;20488;-61
2023/01/01 09:21:20;;;;;;;9.18;1.90;;;12.20;99.90;;;;;;5026743;28;20038;-62
2023/01/01 09:23:45;;;;;;;8.77;1.83;;;12.10;99.90;;;;;;5021944;28;20318;-62
2023/01/01 09:26:11;;;;;;;13.18;1.90;;;12.20;99.90;;;;;;5027647;28;20083;-62
2023/01/01 09:28:37;;;;;;;10.43;1.80;;;12.20;99.90;;;;;;5026167;28;20128;-62
2023/01/01 09:31:05;;;;;;;9.95;2.17;;;12.20;99.90;;;;;;5027406;28;20041;-62
2023/01/01 09:33:31;;;;;;;13.60;2.00;;;12.20;99.90;;;;;;5024921;28;20029;-62
2023/01/01 09:36:14;;;;;;;12.18;2.05;;;12.30;99.90;;;;;;5031700;28;20547;-62
2023/01/01 09:38:39;;;;;;;11.05;1.90;;;12.30;99.90;;;;;;5006896;28;20076;-63
2023/01/01 09:41:20;;;;;;;8.93;1.90;;;12.30;99.90;;;;;;5013899;28;20033;-61
2023/01/01 09:44:25;;;;;;;9.00;1.88;;;12.30;99.90;;;;;;5002145;28;20041;-62
2023/01/01 09:46:52;;;;;;;11.98;2.13;;;12.30;99.90;;;;;;5018921;28;20092;-61
2023/01/01 09:49:37;;;;;;;9.90;1.98;;;12.30;99.90;;;;;;5023960;28;20038;-62
2023/01/01 09:52:04;;;;;;;9.63;2.28;;;12.30;99.90;;;;;;5004364;28;21587;-62
2023/01/01 09:54:38;;;;;;;8.63;1.90;;;12.30;99.90;;;;;;5027354;28;20120;-63
2023/01/01 09:57:09;;;;;;;9.05;1.90;;;12.30;99.90;;;;;;5028395;28;20129;-62
2023/01/01 09:59:35;;;;;;;9.25;2.03;;;12.40;99.90;;;;;;5026989;28;20042;-62
2023/01/01 10:02:26;;;;;;;9.70;1.75;;;12.30;99.90;;;;;;5031258;28;20036;-63
2023/01/01 10:05:00;;;;;;;9.80;2.17;;;12.30;99.90;;;;;;5009758;28;20500;-64
2023/01/01 10:07:32;;;;;;;8.45;1.85;;;12.30;99.90;;;;;;5029020;28;20047;-62
2023/01/01 10:10:24;;;;;;;7.87;2.03;;;12.30;99.90;;;;;;5022535;28;20036;-61
2023/01/01 10:13:09;;;;;;;15.82;2.35;;;12.40;99.90;;;;;;5008654;28;20125;-62
2023/01/01 10:15:39;;;;;;;7.55;1.88;;;12.30;99.90;;;;;;5026144;28;20490;-63
2023/01/01 10:18:15;;;;;;;9.27;1.70;;;12.30;99.90;;;;;;5025991;28;20044;-62
2023/01/01 10:20:47;;;;;;;7.25;2.13;;;12.30;99.90;;;;;;5012173;28;20052;-62
2023/01/01 10:23:21;;;;;;;10.45;2.40;;;12.30;99.90;;;;;;5016438;28;20034;-61
2023/01/01 10:25:47;;;;;;;9.30;2.00;;;12.20;99.90;;;;;;5029438;28;20041;-62
2023/01/01 10:28:28;;;;;;;12.60;2.35;;;12.20;99.90;;;;;;5023782;28;20041;-64
2023/01/01 10:31:12;;;;;;;10.73;2.03;;;12.30;99.90;;;;;;5024344;28;20059;-62
2023/01/01 10:33:38;;;;;;;12.07;2.20;;;12.40;99.90;;;;;;5018509;28;20132;-64
2023/01/01 10:36:04;;;;;;;9.10;1.98;;;12.40;99.90;;;;;;5003253;28;20259;-62
2023/01/01 10:38:30;;;;;;;7.18;1.90;;;12.50;99.90;;;;;;4995299;28;20048;-61
2023/01/01 10:41:05;;;;;;;10.13;2.17;;;12.50;99.90;;;;;;5017912;28;20037;-62
2023/01/01 10:43:30;;;;;;;9.07;1.83;;;12.50;99.90;;;;;;5015904;28;20064;-62
2023/01/01 10:45:59;;;;;;;9.82;1.83;;;12.50;99.90;;;;;;5013830;28;20033;-62
2023/01/01 10:48:27;;;;;;;11.57;1.70;;;12.50;99.90;;;;;;5007535;28;20040;-62
2023/01/01 10:51:01;;;;;;;12.30;2.55;;;12.50;99.90;;;;;;5014282;28;20033;-62
2023/01/01 10:53:48;;;;;;;10.85;2.10;;;12.50;99.90;;;;;;5008188;28;20431;-62
2023/01/01 10:56:22;;;;;;;11.65;2.03;;;12.50;99.90;;;;;;5016171;28;20068;-62
2023/01/01 10:58:57;;;;;;;10.63;2.33;;;12.60;99.90;;;;;;5014671;28;20683;-62
2023/01/01 11:01:30;;;;;;;8.68;2.08;;;12.50;99.90;;;;;;5013097;28;20036;-62
2023/01/01 11:04:07;;;;;;;11.45;2.03;;;12.50;99.90;;;;;;4998596;28;20034;-62
2023/01/01 11:06:42;;;;;;;6.57;1.70;;;12.60;99.90;;;;;;5017187;28;20041;-62
2023/01/01 11:09:28;;;;;;;13.68;2.20;;;12.60;99.90;;;;;;5014880;28;20041;-62
2023/01/01 11:12:00;;;;;;;11.02;2.30;;;12.70;99.90;;;;;;5011274;28;20044;-62
2023/01/01 11:14:33;;;;;;;14.18;2.28;;;12.80;99.90;;;;;;4991319;28;20472;-62
2023/01/01 11:16:59;;;;;;;9.23;2.15;;;12.80;99.90;;;;;;5015695;28;20044;-62
2023/01/01 11:19:36;;;;;;;10.40;2.30;;;12.80;99.90;;;;;;5009164;28;20046;-62
2023/01/01 11:22:06;;;;;;;9.10;1.98;;;12.90;99.90;;;;;;5024243;28;20209;-62
2023/01/01 11:24:33;;;;;;;13.65;2.40;;;13.00;99.90;;;;;;5010278;28;20037;-61
2023/01/01 11:27:18;;;;;;;10.10;2.03;;;13.00;99.90;;;;;;5027002;28;20057;-64
2023/01/01 11:29:43;;;;;;;10.63;1.95;;;13.10;99.90;;;;;;5028799;28;20033;-61
2023/01/01 11:32:20;;;;;;;9.25;2.25;;;13.10;99.90;;;;;;5000538;28;20056;-62
2023/01/01 11:34:55;;;;;;;12.90;2.33;;;13.10;99.90;;;;;;5021115;28;20033;-61
2023/01/01 11:37:38;;;;;;;10.52;2.05;;;13.10;99.90;;;;;;5010939;28;20045;-62
2023/01/01 11:40:13;;;;;;;11.35;2.33;;;13.00;99.90;;;;;;5021846;28;20050;-61
2023/01/01 11:42:46;;;;;;;11.93;2.10;;;13.10;99.90;;;;;;5005656;28;20446;-64
2023/01/01 11:45:25;;;;;;;9.27;2.17;;;13.00;99.90;;;;;;5019375;28;20038;-61
2023/01/01 11:47:58;;;;;;;9.85;2.05;;;13.00;99.90;;;;;;5008116;28;20495;-60
2023/01/01 11:50:37;;;;;;;9.23;2.80;;;13.00;99.90;;;;;;5001258;28;20123;-64
2023/01/01 11:53:21;;;;;;;15.80;2.40;;;13.00;99.90;;;;;;5004282;28;20049;-62
2023/01/01 11:56:17;;;;;;;8.10;1.92;;;13.00;99.90;;;;;;5028367;28;20033;-61
2023/01/01 11:58:52;;;;;;;10.43;2.38;;;13.00;99.90;;;;;;5001835;28;20049;-61
2023/01/01 12:01:33;;;;;;;9.60;2.17;;;13.00;99.90;;;;;;5001304;28;20042;-61
2023/01/01 12:04:32;;;;;;;11.45;2.20;;;13.10;99.90;;;;;;5019374;28;20046;-61
2023/01/01 12:07:26;;;;;;;11.02;2.08;;;13.10;99.90;;;;;;5018431;28;20725;-62
2023/01/01 12:10:00;;;;;;;14.60;2.38;;;13.00;99.90;;;;;;5018522;28;20168;-62
2023/01/01 12:12:33;;;;;;;12.73;2.30;;;13.00;99.90;;;;;;5017077;28;20088;-61
2023/01/01 12:15:23;;;;;;;12.18;2.15;;;12.90;99.90;;;;;;5012387;28;20128;-62
2023/01/01 12:18:12;;;;;;;11.43;2.13;;;12.80;99.90;;;;;;4995562;28;20042;-61
2023/01/01 12:20:55;;;;;;;14.77;2.17;;;12.80;99.90;;;;;;4990242;28;20173;-62
2023/01/01 12:23:21;;;;;;;14.50;2.78;;;12.80;99.90;;;;;;5001521;28;20117;-61
2023/01/01 12:25:59;;;;;;;8.40;2.33;;;12.80;99.90;;;;;;5020841;28;20133;-63
2023/01/01 12:28:43;;;;;;;14.40;2.50;;;12.80;99.90;;;;;;5014109;28;20061;-63
2023/01/01 12:31:30;;;;;;;10.98;2.55;;;12.70;99.90;;;;;;5015486;28;20060;-64
2023/01/01 12:34:28;;;;;;;12.45;2.35;;;12.70;99.90;;;;;;5014182;28;20041;-62
2023/01/01 12:37:19;;;;;;;14.35;2.42;;;12.80;99.90;;;;;;4990226;28;20045;-62
2023/01/01 12:40:04;;;;;;;10.43;2.17;;;12.70;99.90;;;;;;5023153;28;20095;-64
2023/01/01 12:42:42;;;;;;;10.30;2.00;;;12.70;99.90;;;;;;5028224;28;20048;-62
2023/01/01 12:45:23;;;;;;;10.60;2.47;;;12.70;99.90;;;;;;5023350;28;20038;-63
2023/01/01 12:47:54;;;;;;;12.48;2.33;;;12.70;99.90;;;;;;5006658;28;20512;-64
2023/01/01 12:50:50;;;;;;;13.70;3.03;;;12.70;99.90;;;;;;5007564;28;20045;-61
2023/01/01 12:53:38;;;;;;;12.20;2.08;;;12.70;99.90;;;;;;5004345;28;20103;-61
2023/01/01 12:56:15;;;;;;;12.70;2.47;;;12.70;99.90;;;;;;5025154;28;20084;-62
2023/01/01 12:59:06;;;;;;;10.93;2.20;;;12.60;99.90;;;;;;5027080;28;20125;-63
2023/01/01 13:01:34;;;;;;;12.27;2.55;;;12.60;99.90;;;;;;5007994;28;20049;-61
2023/01/01 13:04:04;;;;;;;11.55;2.50;;;12.60;99.90;;;;;;5025491;28;20044;-61
2023/01/01 13:06:41;;;;;;;12.10;2.35;;;12.60;99.90;;;;;;5003918;28;20041;-62